Latour, Missouri
Current Conditions -  °F | °C
As of 3:35 PM on Monday 24 Nov 2014 (Local Time) from KRCM Reporting Station
Overcast Overcast  
Wind Chill: 30°   Ceiling: 3700
Heat Index: 37°   Visibility: 10mi
Dew Point: 23°   Wind: 12mph
Humidity: 56%   Direction: 270°W
Pressure: 29.87"   Gusts: 22mph
Location:  38.5641°N, 94.1793°W
Report Text: KRCM 242135Z AUTO 27010G19KT 10SM OVC037 03/M05 A2987 RMK AO2
Loading
Personal Weather Stations






























Interactive Weather Map New forecast layout! Learn more

10-Day Weather Forecast

Advertisements
Track Severe Weather on mobile